Pays
Station

 

Conditions  météo  pour  Gallivare  -  Suède    Suède

  
22 °C
    
 
 

METAR pour Gallivare :

ESNG 231720Z 15007KT CAVOK 22/12 Q1015

 

Voici le bulletin pour Gallivare - Suède.
 
Le bulletin a été fait il y a 16 minutes, à 17:20 UTC .
Le vent soufflait à la vitesse de 3.6 mètres par seconde de Sud/Sud-est (150°).
 
La température était de 22 °C, avec un point de rosée à 12 °C.
La température ressentie était de 25 °C.
 
La pression atmosphérique était de 1015 hPa.
L'humidité relative était de 53.0%.
 
Il y avait pas de nuages en-dessous de 1500 mètres et pas de cumulonimbus.
 
La visibilité globale était de supérieure à 10 kilomètres.
 

 
 
 

Pays :   A   B   C   D   E   F   G   H   I   J   K   L   M   N   O   P   Q   R   S   T   U   V   W   Y   Z

 

Partenaires :  Info Météo avec Met'info
Météo Marine avec MeteoMarine.net
Infos Site  |  Infos Légales  |  Crédits  |  Confidentialité
Contactez-nous  |  Ajouter aux favoris
© 2013-2019 METAR - Tous droits réservés